Time;durP1;ratioP1;P1;durP2;ratioP2;P2;SDS_P1;SDS_P2;PMS_P1;PMS_P2;Temp;Humidity;BMP_temperature;BMP_pressure;BME280_temperature;BME280_humidity;BME280_pressure;Samples;Min_cycle;Max_cycle;Signal;HPM_P1;HPM_P2
2023/08/01 00:01:45;;;;;;;104.60;99.35;;;;;;;;;;5075584;28;20036;-76
2023/08/01 00:04:11;;;;;;;119.18;113.25;;;;;;;;;;5076584;28;20051;-72
2023/08/01 00:06:36;;;;;;;114.75;108.95;;;;;;;;;;5076389;28;20036;-72
2023/08/01 00:09:02;;;;;;;91.50;86.72;;;;;;;;;;5073004;28;20032;-74
2023/08/01 00:11:27;;;;;;;121.18;115.15;;;;;;;;;;5076859;28;20036;-73
2023/08/01 00:13:52;;;;;;;121.25;115.15;;;;;;;;;;5075943;28;20036;-73
2023/08/01 00:16:18;;;;;;;131.00;124.40;;;;;;;;;;5077954;28;20075;-75
2023/08/01 00:18:43;;;;;;;133.18;126.55;;;;;;;;;;5069979;28;20101;-72
2023/08/01 00:21:11;;;;;;;133.15;126.50;;;;;;;;;;5079972;28;20036;-72
2023/08/01 00:23:37;;;;;;;111.07;105.53;;;;;;;;;;5077485;28;20032;-74
2023/08/01 00:26:03;;;;;;;133.05;125.72;;;;;;;;;;5065679;28;20029;-75
2023/08/01 00:28:32;;;;;;;129.80;122.35;;;;;;;;;;5072684;28;20032;-75
2023/08/01 00:31:11;;;;;;;125.75;119.35;;;;;;;;;;5076826;28;20501;-75
2023/08/01 00:33:37;;;;;;;113.38;107.75;;;;;;;;;;5073614;28;20059;-76
2023/08/01 00:36:02;;;;;;;125.35;119.07;;;;;;;;;;5075868;28;20072;-76
2023/08/01 00:38:28;;;;;;;109.18;103.70;;;;;;;;;;5077292;28;20313;-72
2023/08/01 00:40:53;;;;;;;96.85;91.85;;;;;;;;;;5079095;28;20096;-75
2023/08/01 00:43:19;;;;;;;105.25;100.00;;;;;;;;;;5080988;28;20037;-74
2023/08/01 00:45:45;;;;;;;82.80;78.55;;;;;;;;;;5084054;28;20027;-74
2023/08/01 00:48:11;;;;;;;105.85;100.18;;;;;;;;;;5079391;28;20040;-73
2023/08/01 00:50:38;;;;;;;90.05;85.50;;;;;;;;;;5081704;28;20046;-72
2023/08/01 00:53:03;;;;;;;72.93;69.10;;;;;;;;;;5079543;28;20032;-73
2023/08/01 00:55:29;;;;;;;65.15;61.88;;;;;;;;;;5079640;28;20305;-73
2023/08/01 00:57:54;;;;;;;70.00;66.47;;;;;;;;;;5080014;28;20111;-73
2023/08/01 01:00:19;;;;;;;65.55;62.22;;;;;;;;;;5079241;28;20043;-72
2023/08/01 01:02:47;;;;;;;70.78;67.18;;;;;;;;;;5081511;28;20455;-70
2023/08/01 01:05:13;;;;;;;70.63;67.05;;;;;;;;;;5077969;28;20031;-71
2023/08/01 01:07:40;;;;;;;71.30;67.65;;;;;;;;;;5080664;28;20847;-72
2023/08/01 01:10:05;;;;;;;68.18;64.70;;;;;;;;;;5079411;28;20043;-72
2023/08/01 01:12:31;;;;;;;61.20;58.15;;;;;;;;;;5079045;28;20020;-74
2023/08/01 01:14:56;;;;;;;62.53;59.28;;;;;;;;;;5080453;28;20027;-74
2023/08/01 01:17:21;;;;;;;58.15;55.20;;;;;;;;;;5078487;28;20379;-72
2023/08/01 01:19:47;;;;;;;58.97;56.00;;;;;;;;;;5075901;28;20119;-73
2023/08/01 01:22:12;;;;;;;57.90;54.88;;;;;;;;;;5078495;28;20040;-73
2023/08/01 01:24:40;;;;;;;62.55;59.10;;;;;;;;;;5081794;28;20028;-73
2023/08/01 01:27:07;;;;;;;58.03;55.05;;;;;;;;;;5078620;28;20036;-75
2023/08/01 01:29:33;;;;;;;58.00;54.97;;;;;;;;;;5080569;28;20040;-73
2023/08/01 01:32:03;;;;;;;57.15;54.20;;;;;;;;;;5077513;28;20032;-72
2023/08/01 01:34:29;;;;;;;53.88;50.08;;;;;;;;;;5076133;28;20045;-72
2023/08/01 01:36:54;;;;;;;49.53;46.90;;;;;;;;;;5077040;28;20044;-73
2023/08/01 01:39:20;;;;;;;52.80;50.08;;;;;;;;;;5078541;28;20169;-73
2023/08/01 01:41:45;;;;;;;58.55;55.55;;;;;;;;;;5078338;28;20052;-75
2023/08/01 01:44:11;;;;;;;48.47;45.88;;;;;;;;;;5075221;28;20051;-73
2023/08/01 01:46:36;;;;;;;45.42;42.72;;;;;;;;;;5078218;28;20480;-74
2023/08/01 01:49:02;;;;;;;42.28;39.88;;;;;;;;;;5079046;28;20492;-72
2023/08/01 01:51:28;;;;;;;43.22;40.90;;;;;;;;;;5077091;28;20032;-73
2023/08/01 01:53:53;;;;;;;43.17;40.95;;;;;;;;;;5078211;28;20282;-73
2023/08/01 01:56:18;;;;;;;35.97;34.03;;;;;;;;;;5080171;28;20433;-72
2023/08/01 01:58:44;;;;;;;33.60;31.80;;;;;;;;;;5077499;28;20028;-73
2023/08/01 02:01:09;;;;;;;36.55;34.65;;;;;;;;;;5078673;28;20043;-71
2023/08/01 02:03:35;;;;;;;48.10;45.55;;;;;;;;;;5079177;28;20029;-72
2023/08/01 02:06:03;;;;;;;44.08;41.85;;;;;;;;;;5080910;28;20055;-72
2023/08/01 02:08:29;;;;;;;40.50;38.40;;;;;;;;;;5087847;28;20069;-72
2023/08/01 02:10:57;;;;;;;41.10;38.60;;;;;;;;;;5082896;28;20039;-72
2023/08/01 02:13:23;;;;;;;41.17;39.03;;;;;;;;;;5080971;28;20425;-72
2023/08/01 02:15:48;;;;;;;36.20;34.28;;;;;;;;;;5080553;28;20064;-72
2023/08/01 02:18:14;;;;;;;43.55;40.92;;;;;;;;;;5083401;28;20028;-73
2023/08/01 02:20:39;;;;;;;42.65;40.20;;;;;;;;;;5076146;28;20047;-73
2023/08/01 02:23:05;;;;;;;37.40;35.33;;;;;;;;;;5078910;28;20039;-74
2023/08/01 02:25:30;;;;;;;44.53;42.15;;;;;;;;;;5077191;28;20035;-73
2023/08/01 02:27:55;;;;;;;45.80;43.33;;;;;;;;;;5075048;28;20461;-73
2023/08/01 02:30:20;;;;;;;42.40;40.03;;;;;;;;;;5076288;28;20138;-73
2023/08/01 02:32:46;;;;;;;37.15;35.22;;;;;;;;;;5076593;28;20054;-73
2023/08/01 02:35:11;;;;;;;42.78;40.55;;;;;;;;;;5079567;28;20044;-72
2023/08/01 02:37:37;;;;;;;44.10;41.80;;;;;;;;;;5075268;28;20016;-73
2023/08/01 02:40:07;;;;;;;43.13;40.70;;;;;;;;;;5074631;28;20028;-73
2023/08/01 02:42:32;;;;;;;37.58;35.58;;;;;;;;;;5079213;28;20032;-74
2023/08/01 02:44:58;;;;;;;40.30;38.20;;;;;;;;;;5076213;28;20047;-72
2023/08/01 02:47:23;;;;;;;40.80;38.70;;;;;;;;;;5076333;28;20041;-73
2023/08/01 02:49:48;;;;;;;42.15;39.92;;;;;;;;;;5075874;28;20024;-74
2023/08/01 02:52:14;;;;;;;42.75;40.53;;;;;;;;;;5067442;28;20039;-75
2023/08/01 02:54:39;;;;;;;39.83;37.70;;;;;;;;;;5079916;28;20031;-73
2023/08/01 02:57:04;;;;;;;40.80;38.70;;;;;;;;;;5079340;28;20038;-74
2023/08/01 02:59:32;;;;;;;39.38;37.35;;;;;;;;;;5078256;28;20040;-74
2023/08/01 03:01:59;;;;;;;39.30;37.28;;;;;;;;;;5080680;28;20040;-73
2023/08/01 03:04:24;;;;;;;40.47;38.22;;;;;;;;;;5074724;28;20351;-73
2023/08/01 03:06:49;;;;;;;40.03;37.92;;;;;;;;;;5078557;28;20062;-72
2023/08/01 03:09:15;;;;;;;42.45;40.22;;;;;;;;;;5078737;28;20695;-71
2023/08/01 03:11:41;;;;;;;36.90;35.00;;;;;;;;;;5077734;28;20316;-72
2023/08/01 03:14:06;;;;;;;43.50;41.28;;;;;;;;;;5074021;28;20039;-73
2023/08/01 03:16:32;;;;;;;41.53;39.28;;;;;;;;;;5077894;28;20041;-72
2023/08/01 03:18:59;;;;;;;41.33;39.20;;;;;;;;;;5076078;28;20043;-73
2023/08/01 03:21:26;;;;;;;38.83;36.80;;;;;;;;;;5072405;28;20131;-73
2023/08/01 03:23:51;;;;;;;41.05;38.88;;;;;;;;;;5079026;28;20482;-73
2023/08/01 03:26:18;;;;;;;39.88;37.78;;;;;;;;;;5075269;28;20142;-73
2023/08/01 03:28:43;;;;;;;40.38;38.25;;;;;;;;;;5075439;28;20350;-74
2023/08/01 03:31:09;;;;;;;35.97;34.00;;;;;;;;;;5078891;28;20032;-74
2023/08/01 03:33:34;;;;;;;39.42;37.40;;;;;;;;;;5078217;28;20154;-74
2023/08/01 03:36:00;;;;;;;37.42;35.25;;;;;;;;;;5078273;28;20036;-75
2023/08/01 03:38:25;;;;;;;32.13;30.45;;;;;;;;;;5076939;28;20545;-73
2023/08/01 03:40:50;;;;;;;36.65;34.75;;;;;;;;;;5079643;28;20519;-73
2023/08/01 03:43:23;;;;;;;37.15;35.15;;;;;;;;;;5076109;28;20039;-73
2023/08/01 03:45:48;;;;;;;35.88;34.03;;;;;;;;;;5075045;28;20462;-74
2023/08/01 03:48:14;;;;;;;36.40;34.53;;;;;;;;;;5076926;28;20118;-73
2023/08/01 03:50:39;;;;;;;36.38;34.50;;;;;;;;;;5076158;28;20297;-72
2023/08/01 03:53:04;;;;;;;38.20;36.00;;;;;;;;;;5076716;28;20036;-73
2023/08/01 03:55:30;;;;;;;38.45;36.25;;;;;;;;;;5076604;28;20339;-73
2023/08/01 03:57:55;;;;;;;36.53;34.63;;;;;;;;;;5075578;28;20158;-71
2023/08/01 04:00:20;;;;;;;37.38;35.25;;;;;;;;;;5075518;28;20044;-72
2023/08/01 04:02:46;;;;;;;39.25;37.20;;;;;;;;;;5071060;28;20024;-71
2023/08/01 04:05:11;;;;;;;39.60;37.13;;;;;;;;;;5076809;28;20097;-73
2023/08/01 04:07:37;;;;;;;39.20;37.10;;;;;;;;;;5076216;28;20381;-72
2023/08/01 04:10:04;;;;;;;36.40;34.50;;;;;;;;;;5076268;28;20024;-71
2023/08/01 04:12:32;;;;;;;36.10;34.20;;;;;;;;;;5072194;28;20064;-73
2023/08/01 04:14:57;;;;;;;37.63;35.42;;;;;;;;;;5076885;28;20368;-71
2023/08/01 04:17:22;;;;;;;34.20;32.40;;;;;;;;;;5072019;28;20355;-72
2023/08/01 04:19:48;;;;;;;33.03;31.30;;;;;;;;;;5076306;28;20312;-71
2023/08/01 04:22:13;;;;;;;36.08;34.22;;;;;;;;;;5074157;28;20232;-71
2023/08/01 04:24:38;;;;;;;35.80;33.95;;;;;;;;;;5076770;28;20028;-70
2023/08/01 04:27:04;;;;;;;40.17;38.13;;;;;;;;;;5077482;28;20051;-71
2023/08/01 04:29:30;;;;;;;40.58;38.47;;;;;;;;;;5075929;28;20506;-71
2023/08/01 04:31:56;;;;;;;41.28;39.05;;;;;;;;;;5075302;28;20141;-71
2023/08/01 04:34:21;;;;;;;40.50;38.40;;;;;;;;;;5076766;28;20043;-71
2023/08/01 04:36:47;;;;;;;36.58;34.70;;;;;;;;;;5076452;28;20446;-71
2023/08/01 04:39:12;;;;;;;38.00;36.00;;;;;;;;;;5073913;28;20036;-71
2023/08/01 04:41:37;;;;;;;42.42;40.22;;;;;;;;;;5082703;28;20468;-71
2023/08/01 04:44:03;;;;;;;36.75;34.85;;;;;;;;;;5075725;28;20461;-70
2023/08/01 04:46:28;;;;;;;37.28;35.35;;;;;;;;;;5076291;28;20028;-70
2023/08/01 04:48:53;;;;;;;40.45;38.22;;;;;;;;;;5074374;28;20040;-70
2023/08/01 04:51:19;;;;;;;41.70;39.38;;;;;;;;;;5075719;28;20113;-71
2023/08/01 04:53:44;;;;;;;41.97;39.75;;;;;;;;;;5074258;28;20042;-71
2023/08/01 04:56:09;;;;;;;36.72;34.83;;;;;;;;;;5075478;28;20400;-73
2023/08/01 04:58:35;;;;;;;39.83;37.78;;;;;;;;;;5074416;28;20107;-71
2023/08/01 05:01:00;;;;;;;37.22;35.30;;;;;;;;;;5075505;28;20059;-72
2023/08/01 05:03:25;;;;;;;37.22;35.28;;;;;;;;;;5082051;28;20043;-73
2023/08/01 05:05:51;;;;;;;38.33;36.30;;;;;;;;;;5077197;28;20032;-73
2023/08/01 05:08:16;;;;;;;33.97;32.20;;;;;;;;;;5074846;28;20032;-73
2023/08/01 05:10:41;;;;;;;40.30;38.13;;;;;;;;;;5077462;28;20036;-72
2023/08/01 05:13:06;;;;;;;35.47;33.60;;;;;;;;;;5073597;28;20087;-72
2023/08/01 05:15:32;;;;;;;36.17;33.97;;;;;;;;;;5077316;28;20664;-71
2023/08/01 05:17:57;;;;;;;33.83;31.83;;;;;;;;;;5074354;28;20103;-71
2023/08/01 05:20:23;;;;;;;37.88;35.92;;;;;;;;;;5073641;28;20055;-73
2023/08/01 05:22:48;;;;;;;36.75;34.72;;;;;;;;;;5074538;28;20115;-72
2023/08/01 05:25:13;;;;;;;33.47;31.67;;;;;;;;;;5077933;28;20044;-70
2023/08/01 05:27:39;;;;;;;34.25;32.50;;;;;;;;;;5081494;28;20111;-73
2023/08/01 05:30:05;;;;;;;34.22;32.45;;;;;;;;;;5077441;28;20082;-73
2023/08/01 05:32:30;;;;;;;37.25;35.30;;;;;;;;;;5079539;28;20029;-73
2023/08/01 05:34:55;;;;;;;32.47;30.80;;;;;;;;;;5078891;28;20096;-73
2023/08/01 05:37:21;;;;;;;32.78;31.08;;;;;;;;;;5082710;28;20134;-75
2023/08/01 05:39:46;;;;;;;31.23;29.58;;;;;;;;;;5084318;28;20031;-73
2023/08/01 05:42:11;;;;;;;33.33;31.52;;;;;;;;;;5082465;28;20043;-77
2023/08/01 05:44:37;;;;;;;32.78;30.85;;;;;;;;;;5081172;28;20040;-73
2023/08/01 05:47:05;;;;;;;31.13;29.48;;;;;;;;;;5077329;28;20079;-74
2023/08/01 05:49:30;;;;;;;29.45;27.85;;;;;;;;;;5077038;28;20083;-74
2023/08/01 05:51:56;;;;;;;29.63;28.08;;;;;;;;;;5079783;28;20060;-75
2023/08/01 05:54:21;;;;;;;28.90;27.35;;;;;;;;;;5080259;28;20036;-73
2023/08/01 05:56:47;;;;;;;27.67;26.23;;;;;;;;;;5080776;28;20036;-70
2023/08/01 05:59:12;;;;;;;28.58;26.30;;;;;;;;;;5084381;28;20042;-71
2023/08/01 06:01:38;;;;;;;27.08;25.60;;;;;;;;;;5079345;28;20535;-74
2023/08/01 06:04:03;;;;;;;31.92;30.25;;;;;;;;;;5077715;28;20047;-75
2023/08/01 06:06:29;;;;;;;30.55;28.88;;;;;;;;;;5079806;28;20089;-75
2023/08/01 06:08:54;;;;;;;31.27;29.65;;;;;;;;;;5079581;28;20446;-74
2023/08/01 06:11:20;;;;;;;29.17;27.60;;;;;;;;;;5077079;28;20028;-72
2023/08/01 06:13:45;;;;;;;27.27;25.88;;;;;;;;;;5062232;28;20024;-73
2023/08/01 06:16:11;;;;;;;26.58;25.13;;;;;;;;;;5078731;28;20043;-71
2023/08/01 06:18:36;;;;;;;29.42;27.73;;;;;;;;;;5072778;28;20378;-76
2023/08/01 06:21:02;;;;;;;31.88;30.17;;;;;;;;;;5079550;28;20134;-74
2023/08/01 06:23:27;;;;;;;29.48;27.88;;;;;;;;;;5074981;28;20109;-76
2023/08/01 06:25:53;;;;;;;31.10;29.48;;;;;;;;;;5076883;28;20461;-77
2023/08/01 06:28:18;;;;;;;28.80;27.13;;;;;;;;;;5079057;28;20091;-73
2023/08/01 06:30:45;;;;;;;31.50;29.85;;;;;;;;;;5075831;28;20052;-72
2023/08/01 06:33:10;;;;;;;30.25;28.33;;;;;;;;;;5073160;28;20033;-71
2023/08/01 06:35:36;;;;;;;30.05;28.45;;;;;;;;;;5074354;28;20100;-72
2023/08/01 06:38:01;;;;;;;28.08;26.58;;;;;;;;;;5078451;28;20047;-68
2023/08/01 06:40:26;;;;;;;28.17;26.65;;;;;;;;;;5079758;28;20032;-71
2023/08/01 06:42:52;;;;;;;24.48;23.17;;;;;;;;;;5076495;28;20036;-70
2023/08/01 06:45:17;;;;;;;22.70;21.40;;;;;;;;;;5075023;28;20032;-70
2023/08/01 06:47:43;;;;;;;22.45;21.25;;;;;;;;;;5078193;28;20029;-72
2023/08/01 06:50:09;;;;;;;22.42;21.23;;;;;;;;;;5076439;28;20044;-73
2023/08/01 06:52:35;;;;;;;21.33;20.13;;;;;;;;;;5076859;28;20119;-71
2023/08/01 06:55:01;;;;;;;22.25;21.00;;;;;;;;;;5075774;28;20028;-72
2023/08/01 06:57:27;;;;;;;25.55;23.63;;;;;;;;;;5075305;28;20028;-70
2023/08/01 06:59:53;;;;;;;22.27;20.98;;;;;;;;;;5075822;28;20028;-68
2023/08/01 07:02:18;;;;;;;22.10;20.75;;;;;;;;;;5076696;28;20043;-69
2023/08/01 07:04:43;;;;;;;21.85;20.70;;;;;;;;;;5077034;28;20119;-72
2023/08/01 07:07:09;;;;;;;20.52;19.42;;;;;;;;;;5078376;28;20036;-74
2023/08/01 07:09:34;;;;;;;22.45;21.05;;;;;;;;;;5078580;28;20501;-75
2023/08/01 07:12:00;;;;;;;26.58;24.98;;;;;;;;;;5076794;28;20704;-74
2023/08/01 07:14:25;;;;;;;24.50;23.20;;;;;;;;;;5073994;28;20737;-74
2023/08/01 07:16:50;;;;;;;24.23;22.88;;;;;;;;;;5079669;28;20039;-73
2023/08/01 07:19:16;;;;;;;29.42;27.83;;;;;;;;;;5076199;28;20050;-72
2023/08/01 07:21:41;;;;;;;28.83;27.33;;;;;;;;;;5074678;28;20375;-73
2023/08/01 07:24:06;;;;;;;32.40;30.70;;;;;;;;;;5076582;28;20635;-73
2023/08/01 07:26:32;;;;;;;33.25;31.55;;;;;;;;;;5074899;28;20028;-73
2023/08/01 07:28:57;;;;;;;30.02;28.42;;;;;;;;;;5074745;28;20033;-73
2023/08/01 07:31:22;;;;;;;28.38;26.50;;;;;;;;;;5074197;28;20161;-72
2023/08/01 07:33:48;;;;;;;29.85;28.25;;;;;;;;;;5074872;28;20466;-72
2023/08/01 07:36:13;;;;;;;29.27;27.67;;;;;;;;;;5074134;28;20622;-71
2023/08/01 07:38:38;;;;;;;31.35;29.70;;;;;;;;;;5076117;28;20094;-72
2023/08/01 07:41:07;;;;;;;31.35;29.75;;;;;;;;;;5075479;28;20032;-73
2023/08/01 07:43:32;;;;;;;34.30;32.50;;;;;;;;;;5075452;28;20040;-73
2023/08/01 07:45:58;;;;;;;38.58;36.58;;;;;;;;;;5075480;28;20090;-73
2023/08/01 07:48:23;;;;;;;41.78;39.65;;;;;;;;;;5071984;28;20044;-73
2023/08/01 07:50:49;;;;;;;48.45;45.95;;;;;;;;;;5075618;28;20042;-73
2023/08/01 07:53:14;;;;;;;54.33;51.63;;;;;;;;;;5071790;28;20373;-73
2023/08/01 07:55:39;;;;;;;59.75;56.75;;;;;;;;;;5075193;28;20059;-70
2023/08/01 07:58:05;;;;;;;69.15;65.72;;;;;;;;;;5072802;28;20031;-72
2023/08/01 08:00:30;;;;;;;62.25;59.15;;;;;;;;;;5078375;28;20074;-73
2023/08/01 08:02:56;;;;;;;65.32;62.05;;;;;;;;;;5075218;28;20493;-72
2023/08/01 08:05:21;;;;;;;66.65;63.28;;;;;;;;;;5075604;28;20075;-72
2023/08/01 08:07:46;;;;;;;65.07;61.78;;;;;;;;;;5076204;28;20221;-72
2023/08/01 08:10:12;;;;;;;72.85;69.22;;;;;;;;;;5073860;28;20462;-72
2023/08/01 08:12:37;;;;;;;84.95;80.70;;;;;;;;;;5082408;28;20060;-73
2023/08/01 08:15:03;;;;;;;82.93;78.85;;;;;;;;;;5072330;28;20630;-72
2023/08/01 08:17:28;;;;;;;89.20;84.78;;;;;;;;;;5069524;28;20458;-73
2023/08/01 08:19:54;;;;;;;85.65;81.43;;;;;;;;;;5076725;28;20090;-72
2023/08/01 08:22:19;;;;;;;97.97;93.15;;;;;;;;;;5075161;28;20059;-72
2023/08/01 08:24:44;;;;;;;77.90;74.05;;;;;;;;;;5076193;28;20126;-72
2023/08/01 08:27:10;;;;;;;43.45;41.20;;;;;;;;;;5075163;28;20032;-72
2023/08/01 08:29:35;;;;;;;34.65;32.88;;;;;;;;;;5072382;28;20093;-73
2023/08/01 08:32:01;;;;;;;28.17;26.70;;;;;;;;;;5074151;28;20036;-72
2023/08/01 08:34:26;;;;;;;28.83;27.30;;;;;;;;;;5074914;28;20041;-72
2023/08/01 08:36:52;;;;;;;32.75;31.08;;;;;;;;;;5073981;28;20028;-72
2023/08/01 08:39:18;;;;;;;25.42;24.10;;;;;;;;;;5075667;28;20032;-72
2023/08/01 08:41:51;;;;;;;34.08;32.33;;;;;;;;;;5076817;28;20062;-72
2023/08/01 08:44:21;;;;;;;28.83;27.33;;;;;;;;;;5080592;28;20332;-72
2023/08/01 08:46:54;;;;;;;51.42;48.83;;;;;;;;;;5072350;28;20067;-73
2023/08/01 08:49:21;;;;;;;44.70;42.42;;;;;;;;;;5074334;28;20036;-73
2023/08/01 08:51:47;;;;;;;62.72;59.47;;;;;;;;;;5074873;28;20039;-74
2023/08/01 08:54:14;;;;;;;50.90;46.50;;;;;;;;;;5077034;28;20131;-71
2023/08/01 08:56:40;;;;;;;69.07;65.63;;;;;;;;;;5072055;28;20424;-74
2023/08/01 08:59:07;;;;;;;35.30;33.47;;;;;;;;;;5076393;28;20032;-72
2023/08/01 09:01:34;;;;;;;17.13;16.13;;;;;;;;;;5079491;28;20051;-73
2023/08/01 09:03:59;;;;;;;36.22;34.38;;;;;;;;;;5076347;28;20123;-75
2023/08/01 09:06:29;;;;;;;26.48;25.08;;;;;;;;;;5077791;28;20036;-74
2023/08/01 09:09:15;;;;;;;36.45;34.55;;;;;;;;;;5078908;28;20040;-75
2023/08/01 09:11:43;;;;;;;16.27;15.38;;;;;;;;;;5078448;28;20051;-73
2023/08/01 09:14:09;;;;;;;18.42;17.42;;;;;;;;;;5083162;28;20025;-74
2023/08/01 09:16:35;;;;;;;16.95;16.05;;;;;;;;;;5077920;28;20032;-75
2023/08/01 09:19:01;;;;;;;15.98;15.07;;;;;;;;;;5078333;28;20103;-77
2023/08/01 09:21:26;;;;;;;13.60;12.80;;;;;;;;;;5075096;28;20047;-76
2023/08/01 09:23:52;;;;;;;14.95;14.15;;;;;;;;;;5077205;28;20024;-75
2023/08/01 09:26:19;;;;;;;16.23;15.32;;;;;;;;;;5079404;28;20062;-73
2023/08/01 09:28:56;;;;;;;13.07;12.27;;;;;;;;;;5079362;28;20085;-76
2023/08/01 09:31:36;;;;;;;25.38;24.02;;;;;;;;;;5078596;28;20039;-74
2023/08/01 09:34:06;;;;;;;11.88;11.18;;;;;;;;;;5079792;28;20024;-75
2023/08/01 09:36:34;;;;;;;16.63;15.43;;;;;;;;;;5077001;28;20044;-79
2023/08/01 09:39:02;;;;;;;17.30;16.33;;;;;;;;;;5078339;28;20105;-77
2023/08/01 09:41:31;;;;;;;16.02;15.13;;;;;;;;;;5081725;28;20080;-76
2023/08/01 09:43:57;;;;;;;15.55;14.65;;;;;;;;;;5076643;28;20036;-83
2023/08/01 09:46:24;;;;;;;13.50;12.70;;;;;;;;;;5080188;28;20043;-82
2023/08/01 09:48:49;;;;;;;13.60;12.80;;;;;;;;;;5077629;28;20028;-78
2023/08/01 09:51:19;;;;;;;15.75;14.82;;;;;;;;;;5080626;28;20535;-78
2023/08/01 09:53:54;;;;;;;11.93;11.23;;;;;;;;;;5076921;28;20351;-78
2023/08/01 09:56:25;;;;;;;13.10;12.30;;;;;;;;;;5076100;28;20504;-78
2023/08/01 09:58:54;;;;;;;11.07;10.40;;;;;;;;;;5077657;28;20036;-78
2023/08/01 10:01:21;;;;;;;12.68;11.98;;;;;;;;;;5073601;28;20119;-79
2023/08/01 10:03:52;;;;;;;13.07;12.27;;;;;;;;;;5080314;28;20066;-79
2023/08/01 10:06:22;;;;;;;13.98;13.18;;;;;;;;;;5078188;28;20450;-77
2023/08/01 10:08:50;;;;;;;13.43;12.63;;;;;;;;;;5075944;28;20036;-72
2023/08/01 10:11:18;;;;;;;13.68;12.88;;;;;;;;;;5076912;28;20043;-77
2023/08/01 10:13:44;;;;;;;13.38;12.60;;;;;;;;;;5075788;28;20063;-77
2023/08/01 10:16:10;;;;;;;15.88;14.98;;;;;;;;;;5075373;28;20471;-76
2023/08/01 10:18:37;;;;;;;13.65;12.85;;;;;;;;;;5075984;28;20055;-76
2023/08/01 10:21:05;;;;;;;14.48;13.68;;;;;;;;;;5074657;28;20028;-76
2023/08/01 10:23:32;;;;;;;15.07;14.20;;;;;;;;;;5077503;28;20379;-76
2023/08/01 10:25:59;;;;;;;11.85;11.15;;;;;;;;;;5074910;28;20035;-76
2023/08/01 10:28:32;;;;;;;15.73;14.82;;;;;;;;;;5073672;28;20470;-74
2023/08/01 10:31:15;;;;;;;15.88;14.98;;;;;;;;;;5074934;28;20032;-72
2023/08/01 10:33:42;;;;;;;17.48;16.48;;;;;;;;;;5074366;28;20370;-75
2023/08/01 10:36:18;;;;;;;19.40;18.35;;;;;;;;;;5073476;28;20039;-73
2023/08/01 10:38:52;;;;;;;18.17;17.17;;;;;;;;;;5076149;28;20035;-75
2023/08/01 10:41:32;;;;;;;14.63;13.80;;;;;;;;;;5076535;28;20032;-74
2023/08/01 10:44:14;;;;;;;19.48;18.38;;;;;;;;;;5076009;28;20080;-74
2023/08/01 10:46:47;;;;;;;19.67;18.58;;;;;;;;;;5077646;28;20033;-73
2023/08/01 10:49:12;;;;;;;19.40;18.30;;;;;;;;;;5078775;28;20032;-74
2023/08/01 10:51:37;;;;;;;15.68;14.77;;;;;;;;;;5072376;28;20096;-73
2023/08/01 10:54:03;;;;;;;17.95;16.85;;;;;;;;;;5071856;28;20101;-74
2023/08/01 10:56:31;;;;;;;16.63;15.73;;;;;;;;;;5075276;28;20036;-71
2023/08/01 10:58:57;;;;;;;19.10;18.00;;;;;;;;;;5076854;28;20028;-73
2023/08/01 11:01:22;;;;;;;14.85;14.02;;;;;;;;;;5072218;28;20043;-75
2023/08/01 11:03:48;;;;;;;15.82;14.93;;;;;;;;;;5071159;28;20040;-72
2023/08/01 11:06:14;;;;;;;19.08;17.42;;;;;;;;;;5074338;28;20044;-71
2023/08/01 11:08:40;;;;;;;15.60;14.70;;;;;;;;;;5076712;28;20804;-74
2023/08/01 11:11:10;;;;;;;17.55;16.48;;;;;;;;;;5076926;28;20704;-74
2023/08/01 11:13:36;;;;;;;13.15;12.35;;;;;;;;;;5077736;28;20624;-74
2023/08/01 11:16:03;;;;;;;14.63;13.80;;;;;;;;;;5080460;28;20031;-76
2023/08/01 11:18:29;;;;;;;58.00;55.13;;;;;;;;;;5076936;28;20059;-74
2023/08/01 11:20:55;;;;;;;17.63;16.60;;;;;;;;;;5075636;28;20670;-77
2023/08/01 11:23:28;;;;;;;71.85;68.28;;;;;;;;;;5080406;28;20586;-76
2023/08/01 11:25:54;;;;;;;43.25;41.03;;;;;;;;;;5076691;28;20133;-79
2023/08/01 11:28:21;;;;;;;45.25;42.92;;;;;;;;;;5077879;28;20029;-73
2023/08/01 11:30:47;;;;;;;44.65;42.35;;;;;;;;;;5077322;28;20495;-78
2023/08/01 11:33:22;;;;;;;55.40;52.60;;;;;;;;;;5075967;28;20032;-73
2023/08/01 11:35:59;;;;;;;38.13;36.17;;;;;;;;;;5077931;28;20040;-75
2023/08/01 11:38:30;;;;;;;96.93;92.20;;;;;;;;;;5073040;28;20028;-75
2023/08/01 11:40:59;;;;;;;77.93;74.05;;;;;;;;;;5077014;28;20086;-77
2023/08/01 11:43:24;;;;;;;59.90;56.90;;;;;;;;;;5075371;28;20044;-78
2023/08/01 11:45:55;;;;;;;49.85;47.35;;;;;;;;;;5077113;28;20034;-75
2023/08/01 11:48:22;;;;;;;99.13;94.25;;;;;;;;;;5078225;28;20040;-76
2023/08/01 11:50:48;;;;;;;52.65;50.00;;;;;;;;;;5079333;28;20115;-75
2023/08/01 11:53:21;;;;;;;57.20;54.35;;;;;;;;;;5078762;28;20177;-76
2023/08/01 11:55:47;;;;;;;61.20;58.15;;;;;;;;;;5079176;28;20382;-81
2023/08/01 11:58:14;;;;;;;100.22;95.30;;;;;;;;;;5078738;28;20036;-72
2023/08/01 12:00:40;;;;;;;85.35;81.13;;;;;;;;;;5077235;28;20078;-76
2023/08/01 12:03:11;;;;;;;96.95;92.18;;;;;;;;;;5074280;28;20032;-78
2023/08/01 12:05:37;;;;;;;67.65;64.28;;;;;;;;;;5078212;28;20184;-80
2023/08/01 12:08:13;;;;;;;87.97;83.65;;;;;;;;;;5082544;28;20525;-77
2023/08/01 12:10:45;;;;;;;90.40;85.90;;;;;;;;;;5080547;28;20359;-75
2023/08/01 12:13:24;;;;;;;97.18;92.30;;;;;;;;;;5077742;28;20040;-75
2023/08/01 12:15:50;;;;;;;104.38;99.18;;;;;;;;;;5077259;28;20077;-76
2023/08/01 12:18:29;;;;;;;117.38;111.63;;;;;;;;;;5077946;28;20036;-78
2023/08/01 12:20:55;;;;;;;124.57;118.43;;;;;;;;;;5078068;28;20028;-75
2023/08/01 12:23:21;;;;;;;106.05;100.85;;;;;;;;;;5083234;28;20042;-79
2023/08/01 12:25:47;;;;;;;104.05;98.93;;;;;;;;;;5078398;28;20036;-78
2023/08/01 12:28:15;;;;;;;104.95;99.82;;;;;;;;;;5077019;28;20036;-75
2023/08/01 12:30:41;;;;;;;99.20;94.35;;;;;;;;;;5079715;28;20033;-77
2023/08/01 12:33:10;;;;;;;116.15;110.45;;;;;;;;;;5080324;28;20473;-74
2023/08/01 12:35:40;;;;;;;136.55;129.85;;;;;;;;;;5087060;28;20100;-79
2023/08/01 12:38:05;;;;;;;125.20;119.07;;;;;;;;;;5081199;28;20293;-77
2023/08/01 12:40:30;;;;;;;98.78;93.93;;;;;;;;;;5079670;28;20359;-77
2023/08/01 12:42:56;;;;;;;131.70;125.15;;;;;;;;;;5084370;28;20467;-77
2023/08/01 12:45:21;;;;;;;148.73;141.45;;;;;;;;;;5082961;28;20078;-76
2023/08/01 12:47:49;;;;;;;122.60;116.60;;;;;;;;;;5084599;28;20058;-78
2023/08/01 12:50:14;;;;;;;134.23;127.30;;;;;;;;;;5085206;28;20040;-75
2023/08/01 12:52:40;;;;;;;144.32;137.20;;;;;;;;;;5082577;28;20520;-78
2023/08/01 12:55:05;;;;;;;135.13;128.48;;;;;;;;;;5069261;28;20031;-78
2023/08/01 12:57:31;;;;;;;109.85;104.47;;;;;;;;;;5083904;28;20035;-77
2023/08/01 12:59:56;;;;;;;121.30;115.35;;;;;;;;;;5087204;28;20370;-74
2023/08/01 13:02:22;;;;;;;110.63;105.20;;;;;;;;;;5078322;28;20044;-77
2023/08/01 13:04:47;;;;;;;120.47;114.57;;;;;;;;;;5079099;28;20033;-78
2023/08/01 13:07:13;;;;;;;100.40;95.47;;;;;;;;;;5069245;28;20031;-76
2023/08/01 13:09:38;;;;;;;110.30;104.47;;;;;;;;;;5077948;28;20382;-75
2023/08/01 13:12:04;;;;;;;104.75;99.60;;;;;;;;;;5080928;28;20028;-77
2023/08/01 13:14:31;;;;;;;132.13;125.63;;;;;;;;;;5066943;28;20527;-74
2023/08/01 13:16:58;;;;;;;110.22;104.82;;;;;;;;;;5077847;28;20024;-78
2023/08/01 13:19:23;;;;;;;107.15;101.88;;;;;;;;;;5078519;28;20028;-77
2023/08/01 13:21:48;;;;;;;123.82;117.72;;;;;;;;;;5080200;28;20043;-71
2023/08/01 13:24:14;;;;;;;120.93;115.00;;;;;;;;;;5082080;28;20720;-77
2023/08/01 13:26:39;;;;;;;146.20;139.00;;;;;;;;;;5081200;28;20028;-76
2023/08/01 13:29:04;;;;;;;152.25;144.75;;;;;;;;;;5075218;28;20040;-69
2023/08/01 13:31:30;;;;;;;126.07;119.88;;;;;;;;;;5077694;28;20028;-73
2023/08/01 13:33:55;;;;;;;107.03;101.78;;;;;;;;;;5077295;28;20056;-67
2023/08/01 13:36:21;;;;;;;117.68;111.85;;;;;;;;;;5080239;28;20461;-73
2023/08/01 13:38:46;;;;;;;126.32;120.10;;;;;;;;;;5081184;28;20034;-72
2023/08/01 13:41:12;;;;;;;141.07;134.18;;;;;;;;;;5083524;28;20403;-70
2023/08/01 13:43:37;;;;;;;119.80;113.95;;;;;;;;;;5079202;28;20024;-71
2023/08/01 13:46:13;;;;;;;129.07;122.72;;;;;;;;;;5083297;28;20043;-74
2023/08/01 13:48:39;;;;;;;113.95;108.35;;;;;;;;;;5079259;28;20036;-74
2023/08/01 13:51:04;;;;;;;126.70;120.50;;;;;;;;;;5079887;28;20032;-74
2023/08/01 13:53:29;;;;;;;111.78;106.25;;;;;;;;;;5076740;28;20032;-74
2023/08/01 13:55:57;;;;;;;81.93;77.88;;;;;;;;;;5081554;28;20085;-76
2023/08/01 13:58:22;;;;;;;94.05;89.43;;;;;;;;;;5079165;28;20032;-74
2023/08/01 14:00:48;;;;;;;101.10;96.15;;;;;;;;;;5079942;28;20721;-73
2023/08/01 14:03:13;;;;;;;97.22;92.45;;;;;;;;;;5080015;28;20506;-73
2023/08/01 14:05:38;;;;;;;68.07;64.68;;;;;;;;;;5076828;28;20028;-75
2023/08/01 14:08:04;;;;;;;81.43;77.43;;;;;;;;;;5077043;28;20561;-74
2023/08/01 14:10:30;;;;;;;62.65;59.53;;;;;;;;;;5077327;28;20032;-72